createdAt,value
2019-01-24T00:02:07.751Z,27.65
2019-01-24T00:04:40.224Z,27.75
2019-01-24T00:07:11.099Z,28.07
2019-01-24T00:09:41.939Z,27.25
2019-01-24T00:12:12.828Z,27.25
2019-01-24T00:14:43.768Z,28.25
2019-01-24T00:17:14.634Z,27.43
2019-01-24T00:19:45.509Z,25.88
2019-01-24T00:22:16.391Z,26.45
2019-01-24T00:24:47.376Z,26.20
2019-01-24T00:27:18.268Z,27.70
2019-01-24T00:29:49.610Z,25.30
2019-01-24T00:32:20.471Z,27.65
2019-01-24T00:34:51.376Z,25.52
2019-01-24T00:37:22.224Z,27.35
2019-01-24T00:39:53.071Z,26.90
2019-01-24T00:42:23.990Z,26.57
2019-01-24T00:44:56.789Z,26.52
2019-01-24T00:47:27.584Z,26.55
2019-01-24T00:49:58.390Z,26.60
2019-01-24T00:52:29.180Z,27.48
2019-01-24T00:54:59.982Z,28.12
2019-01-24T00:57:30.791Z,26.00
2019-01-24T01:00:01.748Z,28.15
2019-01-24T01:02:32.538Z,25.65
2019-01-24T01:05:03.361Z,26.45
2019-01-24T01:07:34.320Z,26.80
2019-01-24T01:10:07.182Z,26.35
2019-01-24T01:12:37.973Z,25.88
2019-01-24T01:15:11.438Z,25.07
2019-01-24T01:17:42.247Z,26.87
2019-01-24T01:20:21.073Z,26.30
2019-01-24T01:22:52.139Z,26.12
2019-01-24T01:25:23.015Z,26.15
2019-01-24T01:27:53.838Z,26.68
2019-01-24T01:30:25.750Z,26.20
2019-01-24T01:32:56.582Z,26.35
2019-01-24T01:35:27.461Z,26.55
2019-01-24T01:37:58.312Z,25.72
2019-01-24T01:40:29.222Z,26.50
2019-01-24T01:43:00.099Z,26.87
2019-01-24T01:45:30.898Z,26.27
2019-01-24T01:48:01.755Z,25.33
2019-01-24T01:50:32.535Z,26.48
2019-01-24T01:53:03.329Z,27.00
2019-01-24T01:55:34.463Z,27.03
2019-01-24T01:58:05.534Z,26.23
2019-01-24T02:00:36.825Z,26.97
2019-01-24T02:03:07.799Z,24.92
2019-01-24T02:05:38.596Z,25.83
2019-01-24T02:08:10.476Z,27.00
2019-01-24T02:10:42.421Z,25.92
2019-01-24T02:13:13.322Z,27.30
2019-01-24T02:15:44.198Z,26.87
2019-01-24T02:18:16.501Z,25.80
2019-01-24T02:20:47.311Z,26.02
2019-01-24T02:23:18.179Z,25.75
2019-01-24T02:25:48.979Z,26.23
2019-01-24T02:28:19.792Z,26.45
2019-01-24T02:30:51.046Z,26.23
2019-01-24T02:33:23.007Z,27.60
2019-01-24T02:35:53.919Z,26.10
2019-01-24T02:38:24.697Z,27.30
2019-01-24T02:40:55.480Z,27.55
2019-01-24T02:43:26.355Z,26.82
2019-01-24T02:45:57.154Z,28.50
2019-01-24T02:48:27.913Z,28.30
2019-01-24T02:50:58.716Z,29.37
2019-01-24T02:53:30.557Z,27.93
2019-01-24T02:56:01.349Z,27.48
2019-01-24T02:58:32.269Z,27.27
2019-01-24T03:01:03.060Z,27.75
2019-01-24T03:03:33.936Z,28.60
2019-01-24T03:06:04.916Z,28.97
2019-01-24T03:08:35.746Z,27.45
2019-01-24T03:11:06.956Z,30.48
2019-01-24T03:13:37.746Z,30.92
2019-01-24T03:16:08.555Z,31.03
2019-01-24T03:18:40.979Z,32.50
2019-01-24T03:21:11.747Z,30.77
2019-01-24T03:23:42.554Z,30.48
2019-01-24T03:26:13.358Z,31.05
2019-01-24T03:28:44.229Z,31.23
2019-01-24T03:31:16.001Z,32.30
2019-01-24T03:33:46.957Z,31.87
2019-01-24T03:36:17.772Z,31.17
2019-01-24T03:38:48.521Z,30.65
2019-01-24T03:41:19.334Z,29.05
2019-01-24T03:43:50.128Z,28.90
2019-01-24T03:46:20.902Z,30.23
2019-01-24T03:48:51.715Z,30.95
2019-01-24T03:51:22.514Z,31.82
2019-01-24T03:53:53.299Z,30.62
2019-01-24T03:56:24.116Z,30.97
2019-01-24T03:58:55.119Z,28.87
2019-01-24T04:01:25.892Z,28.27
2019-01-24T04:03:56.740Z,27.20
2019-01-24T04:06:27.530Z,29.20
2019-01-24T04:08:58.389Z,29.37
2019-01-24T04:11:29.777Z,29.63
2019-01-24T04:14:00.703Z,29.87
2019-01-24T04:16:31.553Z,30.62
2019-01-24T04:19:02.449Z,32.63
2019-01-24T04:21:33.243Z,30.72
2019-01-24T04:24:04.304Z,31.83
2019-01-24T04:26:35.102Z,33.33
2019-01-24T04:29:06.017Z,32.85
2019-01-24T04:31:37.870Z,33.60
2019-01-24T04:34:08.674Z,33.90
2019-01-24T04:36:39.510Z,34.50
2019-01-24T04:39:10.317Z,33.83
2019-01-24T04:41:41.122Z,34.73
2019-01-24T04:44:11.953Z,34.20
2019-01-24T04:46:42.774Z,33.30
2019-01-24T04:49:13.548Z,34.27
2019-01-24T04:51:44.336Z,34.83
2019-01-24T04:54:15.149Z,34.58
2019-01-24T04:56:45.920Z,35.53
2019-01-24T04:59:16.724Z,34.15
2019-01-24T05:01:47.521Z,35.35
2019-01-24T05:04:18.306Z,34.65
2019-01-24T05:06:49.124Z,36.20
2019-01-24T05:09:20.021Z,35.52
2019-01-24T05:11:51.762Z,34.77
2019-01-24T05:14:25.883Z,34.53
2019-01-24T05:16:56.745Z,35.45
2019-01-24T05:19:27.852Z,36.28
2019-01-24T05:22:00.012Z,36.77
2019-01-24T05:24:30.831Z,36.00
2019-01-24T05:27:01.743Z,36.07
2019-01-24T05:29:32.638Z,35.40
2019-01-24T05:32:04.650Z,36.75
2019-01-24T05:34:35.594Z,34.73
2019-01-24T05:37:06.397Z,36.00
2019-01-24T05:39:37.262Z,36.23
2019-01-24T05:42:08.173Z,34.30
2019-01-24T05:44:39.166Z,37.17
2019-01-24T05:47:09.962Z,35.95
2019-01-24T05:49:40.743Z,36.50
2019-01-24T05:52:11.597Z,38.17
2019-01-24T05:54:42.453Z,38.33
2019-01-24T05:57:14.343Z,36.50
2019-01-24T05:59:45.123Z,37.70
2019-01-24T06:02:15.938Z,39.80
2019-01-24T06:04:46.793Z,38.75
2019-01-24T06:07:17.603Z,38.55
2019-01-24T06:09:48.530Z,37.38
2019-01-24T06:12:19.566Z,37.53
2019-01-24T06:14:50.442Z,40.15
2019-01-24T06:17:21.240Z,39.70
2019-01-24T06:19:52.108Z,39.18
2019-01-24T06:22:22.953Z,39.00
2019-01-24T06:24:53.980Z,37.95
2019-01-24T06:27:24.773Z,38.63
2019-01-24T06:29:55.532Z,38.08
2019-01-24T06:32:27.215Z,38.95
2019-01-24T06:34:58.058Z,38.28
2019-01-24T06:37:28.900Z,38.42
2019-01-24T06:40:00.819Z,37.98
2019-01-24T06:42:31.580Z,38.48
2019-01-24T06:45:02.528Z,38.45
2019-01-24T06:47:33.623Z,38.30
2019-01-24T06:50:05.064Z,37.20
2019-01-24T06:52:35.937Z,39.40
2019-01-24T06:55:07.503Z,37.57
2019-01-24T06:57:38.401Z,37.50
2019-01-24T07:02:50.623Z,37.57
2019-01-24T07:05:21.434Z,38.00
2019-01-24T07:07:52.236Z,37.55
2019-01-24T07:10:23.597Z,37.40
2019-01-24T07:12:55.701Z,38.28
2019-01-24T07:15:26.779Z,37.93
2019-01-24T07:17:57.669Z,39.03
2019-01-24T07:20:28.463Z,38.03
2019-01-24T07:22:59.305Z,38.70
2019-01-24T07:25:30.358Z,36.68
2019-01-24T07:28:01.177Z,37.85
2019-01-24T07:30:31.986Z,37.40
2019-01-24T07:33:04.854Z,37.65
2019-01-24T07:35:35.689Z,38.38
2019-01-24T07:38:06.509Z,37.25
2019-01-24T07:40:37.308Z,38.67
2019-01-24T07:43:08.133Z,36.93
2019-01-24T07:45:41.340Z,40.12
2019-01-24T07:48:12.132Z,37.85
2019-01-24T07:50:43.004Z,38.97
2019-01-24T07:53:13.796Z,38.85
2019-01-24T07:55:46.070Z,37.30
2019-01-24T07:58:16.907Z,38.80
2019-01-24T08:00:47.820Z,38.20
2019-01-24T08:03:18.733Z,39.03
2019-01-24T08:05:49.551Z,38.38
2019-01-24T08:08:20.356Z,40.08
2019-01-24T08:10:51.126Z,38.80
2019-01-24T08:13:22.821Z,37.42
2019-01-24T08:15:53.787Z,38.50
2019-01-24T08:18:24.861Z,38.05
2019-01-24T08:20:55.622Z,38.47
2019-01-24T08:23:26.406Z,37.83
2019-01-24T08:25:57.337Z,35.55
2019-01-24T08:28:28.268Z,36.38
2019-01-24T08:30:59.055Z,35.90
2019-01-24T08:33:29.957Z,35.95
2019-01-24T08:36:00.914Z,33.48
2019-01-24T08:38:31.777Z,33.83
2019-01-24T08:41:02.591Z,36.63
2019-01-24T08:43:33.472Z,37.60
2019-01-24T08:46:04.488Z,38.33
2019-01-24T08:48:35.331Z,37.78
2019-01-24T08:51:06.209Z,37.33
2019-01-24T08:53:37.045Z,37.48
2019-01-24T08:56:07.868Z,35.63
2019-01-24T08:58:38.692Z,33.45
2019-01-24T09:01:09.490Z,35.67
2019-01-24T09:03:40.315Z,33.48
2019-01-24T09:06:12.394Z,34.50
2019-01-24T09:08:43.276Z,34.25
2019-01-24T09:11:14.108Z,35.07
2019-01-24T09:13:45.067Z,36.10
2019-01-24T09:16:15.933Z,36.65
2019-01-24T09:18:46.840Z,37.28
2019-01-24T09:21:17.647Z,37.17
2019-01-24T09:23:48.414Z,37.78
2019-01-24T09:26:19.422Z,39.38
2019-01-24T09:28:51.833Z,37.50
2019-01-24T09:31:22.686Z,35.52
2019-01-24T09:33:54.425Z,35.95
2019-01-24T09:36:29.173Z,37.80
2019-01-24T09:38:57.898Z,37.67
2019-01-24T09:41:28.858Z,38.08
2019-01-24T09:43:59.646Z,37.43
2019-01-24T09:46:30.492Z,39.70
2019-01-24T09:49:01.363Z,38.35
2019-01-24T09:51:32.274Z,41.20
2019-01-24T09:54:03.095Z,34.83
2019-01-24T09:56:34.027Z,30.33
2019-01-24T09:59:04.840Z,28.55
2019-01-24T10:01:35.653Z,30.27
2019-01-24T10:04:06.456Z,28.85
2019-01-24T10:06:37.254Z,31.63
2019-01-24T10:09:09.319Z,29.00
2019-01-24T10:11:40.112Z,28.83
2019-01-24T10:14:11.119Z,31.52
2019-01-24T10:16:41.971Z,30.47
2019-01-24T10:19:12.792Z,30.72
2019-01-24T10:21:43.600Z,27.63
2019-01-24T10:24:14.461Z,27.75
2019-01-24T10:26:45.848Z,27.57
2019-01-24T10:29:16.640Z,26.50
2019-01-24T10:31:47.462Z,26.07
2019-01-24T10:34:18.855Z,25.55
2019-01-24T10:36:49.768Z,24.87
2019-01-24T10:39:20.622Z,25.23
2019-01-24T10:41:52.626Z,26.63
2019-01-24T10:44:23.448Z,25.88
2019-01-24T10:46:54.219Z,26.57
2019-01-24T10:49:25.075Z,25.88
2019-01-24T10:51:56.996Z,27.82
2019-01-24T10:54:27.794Z,37.97
2019-01-24T10:57:00.101Z,30.57
2019-01-24T10:59:31.065Z,38.95
2019-01-24T11:02:02.911Z,37.93
2019-01-24T11:04:33.901Z,38.63
2019-01-24T11:07:05.024Z,37.05
2019-01-24T11:09:35.904Z,37.58
2019-01-24T11:12:06.998Z,36.77
2019-01-24T11:14:39.015Z,35.30
2019-01-24T11:17:09.900Z,36.08
2019-01-24T11:19:40.813Z,27.98
2019-01-24T11:22:11.650Z,27.87
2019-01-24T11:24:42.482Z,26.62
2019-01-24T11:27:14.207Z,27.60
2019-01-24T11:29:45.162Z,26.12
2019-01-24T11:32:15.954Z,25.57
2019-01-24T11:34:47.673Z,27.75
2019-01-24T11:37:18.603Z,25.83
2019-01-24T11:39:49.435Z,25.23
2019-01-24T11:42:20.211Z,35.53
2019-01-24T11:44:51.008Z,36.50
2019-01-24T11:47:21.819Z,36.40
2019-01-24T11:49:52.739Z,37.33
2019-01-24T11:52:23.746Z,37.63
2019-01-24T11:54:54.762Z,36.68
2019-01-24T11:57:25.663Z,37.70
2019-01-24T11:59:56.526Z,28.53
2019-01-24T12:02:27.316Z,26.50
2019-01-24T12:04:58.316Z,26.90
2019-01-24T12:07:29.234Z,25.00
2019-01-24T12:10:00.229Z,25.20
2019-01-24T12:12:31.071Z,24.65
2019-01-24T12:15:01.904Z,26.37
2019-01-24T12:17:34.320Z,25.60
2019-01-24T12:20:06.955Z,26.48
2019-01-24T12:22:37.850Z,26.73
2019-01-24T12:25:09.449Z,23.62
2019-01-24T12:27:40.252Z,22.48
2019-01-24T12:30:17.988Z,24.18
2019-01-24T12:32:49.003Z,24.80
2019-01-24T12:35:20.975Z,24.15
2019-01-24T12:37:52.026Z,23.80
2019-01-24T12:40:24.303Z,23.53
2019-01-24T12:42:55.173Z,23.40
2019-01-24T12:45:34.180Z,25.47
2019-01-24T12:48:05.961Z,23.95
2019-01-24T12:50:37.095Z,25.27
2019-01-24T12:53:08.992Z,24.20
2019-01-24T12:55:39.827Z,25.82
2019-01-24T12:58:10.772Z,24.47
2019-01-24T13:00:41.606Z,24.27
2019-01-24T13:03:12.565Z,24.80
2019-01-24T13:05:43.460Z,25.73
2019-01-24T13:08:15.264Z,23.30
2019-01-24T13:10:46.282Z,23.73
2019-01-24T13:13:17.152Z,23.15
2019-01-24T13:15:48.471Z,24.07
2019-01-24T13:18:19.976Z,26.23
2019-01-24T13:20:50.829Z,25.75
2019-01-24T13:23:21.698Z,24.60
2019-01-24T13:25:52.666Z,32.03
2019-01-24T13:28:23.526Z,26.13
2019-01-24T13:30:54.819Z,26.43
2019-01-24T13:33:27.336Z,24.18
2019-01-24T13:35:59.205Z,25.43
2019-01-24T13:38:31.109Z,24.30
2019-01-24T13:41:03.136Z,24.70
2019-01-24T13:43:34.300Z,32.48
2019-01-24T13:46:05.124Z,34.65
2019-01-24T13:48:35.952Z,35.78
2019-01-24T13:51:06.820Z,36.80
2019-01-24T13:53:37.639Z,34.95
2019-01-24T13:56:08.535Z,35.50
2019-01-24T13:58:39.388Z,34.95
2019-01-24T14:01:10.335Z,36.97
2019-01-24T14:04:14.790Z,34.92
2019-01-24T14:06:45.811Z,33.65
2019-01-24T14:09:16.660Z,34.48
2019-01-24T14:11:47.681Z,35.63
2019-01-24T14:14:18.624Z,35.08
2019-01-24T14:16:50.062Z,36.00
2019-01-24T14:19:21.001Z,34.38
2019-01-24T14:21:51.806Z,39.13
2019-01-24T14:24:24.597Z,37.95
2019-01-24T14:26:55.493Z,35.40
2019-01-24T14:29:26.367Z,35.83
2019-01-24T14:31:57.362Z,35.47
2019-01-24T14:34:29.212Z,38.67
2019-01-24T14:37:01.526Z,38.13
2019-01-24T14:39:32.456Z,37.25
2019-01-24T14:42:03.350Z,39.43
2019-01-24T14:44:34.203Z,37.53
2019-01-24T14:47:05.041Z,38.08
2019-01-24T14:49:35.891Z,37.95
2019-01-24T14:52:07.109Z,36.33
2019-01-24T14:54:37.919Z,36.70
2019-01-24T14:57:08.713Z,35.57
2019-01-24T14:59:39.592Z,34.98
2019-01-24T15:02:10.685Z,35.28
2019-01-24T15:04:41.655Z,35.78
2019-01-24T15:07:12.600Z,35.23
2019-01-24T15:09:44.918Z,35.50
2019-01-24T15:12:15.823Z,33.83
2019-01-24T15:14:46.825Z,35.25
2019-01-24T15:17:18.940Z,36.73
2019-01-24T15:19:49.804Z,37.50
2019-01-24T15:22:20.734Z,35.73
2019-01-24T15:24:51.595Z,36.25
2019-01-24T15:27:22.383Z,37.17
2019-01-24T15:29:54.350Z,37.65
2019-01-24T15:32:25.234Z,36.73
2019-01-24T15:34:56.070Z,36.17
2019-01-24T15:37:27.981Z,36.03
2019-01-24T15:39:58.888Z,35.35
2019-01-24T15:42:29.759Z,36.05
2019-01-24T15:45:00.597Z,37.15
2019-01-24T15:47:32.537Z,35.70
2019-01-24T15:50:03.494Z,35.90
2019-01-24T15:52:34.300Z,35.95
2019-01-24T15:55:07.347Z,36.73
2019-01-24T15:57:38.148Z,35.83
2019-01-24T16:00:16.019Z,35.50
2019-01-24T16:02:48.318Z,36.73
2019-01-24T16:05:19.369Z,36.03
2019-01-24T16:07:50.393Z,36.28
2019-01-24T16:10:22.134Z,37.25
2019-01-24T16:12:53.049Z,37.65
2019-01-24T16:15:29.477Z,35.08
2019-01-24T16:18:02.407Z,37.42
2019-01-24T16:20:33.319Z,37.80
2019-01-24T16:23:04.864Z,36.58
2019-01-24T16:25:36.354Z,37.33
2019-01-24T16:28:07.681Z,37.55
2019-01-24T16:30:39.139Z,37.25
2019-01-24T16:33:10.482Z,38.33
2019-01-24T16:35:41.861Z,38.03
2019-01-24T16:38:13.844Z,37.75
2019-01-24T16:40:44.737Z,36.88
2019-01-24T16:43:15.666Z,36.30
2019-01-24T16:45:46.518Z,37.17
2019-01-24T16:48:17.559Z,39.50
2019-01-24T16:50:50.146Z,36.88
2019-01-24T16:53:21.182Z,40.40
2019-01-24T16:55:52.121Z,40.52
2019-01-24T16:58:22.990Z,39.45
2019-01-24T17:01:13.794Z,39.63
2019-01-24T17:03:44.670Z,38.67
2019-01-24T17:06:15.638Z,38.93
2019-01-24T17:08:47.790Z,38.02
2019-01-24T17:11:18.761Z,37.35
2019-01-24T17:13:51.499Z,39.08
2019-01-24T17:16:22.412Z,37.60
2019-01-24T17:18:55.386Z,41.20
2019-01-24T17:21:26.209Z,39.60
2019-01-24T17:23:57.123Z,39.70
2019-01-24T17:26:28.031Z,39.42
2019-01-24T17:28:59.014Z,39.00
2019-01-24T17:31:30.037Z,38.92
2019-01-24T17:34:01.100Z,38.38
2019-01-24T17:36:32.072Z,38.23
2019-01-24T17:39:03.803Z,39.27
2019-01-24T17:41:35.812Z,38.47
2019-01-24T17:44:06.964Z,37.70
2019-01-24T17:46:37.844Z,40.23
2019-01-24T17:49:09.697Z,38.83
2019-01-24T17:51:40.689Z,37.98
2019-01-24T17:54:11.545Z,37.55
2019-01-24T17:56:42.458Z,37.30
2019-01-24T17:59:13.430Z,38.02
2019-01-24T18:01:44.501Z,37.00
2019-01-24T18:04:21.656Z,37.95
2019-01-24T18:06:48.024Z,41.02
2019-01-24T18:09:18.997Z,41.98
2019-01-24T18:11:49.932Z,40.10
2019-01-24T18:14:20.856Z,39.15
2019-01-24T18:16:53.625Z,37.58
2019-01-24T18:19:25.692Z,38.23
2019-01-24T18:21:56.646Z,37.83
2019-01-24T18:24:27.902Z,38.17
2019-01-24T18:27:00.244Z,36.47
2019-01-24T18:29:31.382Z,38.58
2019-01-24T18:32:03.236Z,36.98
2019-01-24T18:34:35.137Z,35.83
2019-01-24T18:38:40.942Z,36.77
2019-01-24T18:41:13.002Z,37.67
2019-01-24T18:43:44.059Z,36.35
2019-01-24T18:46:15.087Z,37.98
2019-01-24T18:48:45.950Z,39.00
2019-01-24T18:51:17.882Z,36.90
2019-01-24T18:53:48.885Z,37.05
2019-01-24T18:56:19.949Z,38.13
2019-01-24T18:58:50.997Z,37.78
2019-01-24T19:01:22.016Z,39.03
2019-01-24T19:03:53.072Z,36.73
2019-01-24T19:06:23.998Z,36.87
2019-01-24T19:08:54.947Z,36.53
2019-01-24T19:11:26.171Z,37.75
2019-01-24T19:13:57.275Z,39.03
2019-01-24T19:16:28.407Z,38.10
2019-01-24T19:18:59.394Z,37.33
2019-01-24T19:21:30.384Z,36.27
2019-01-24T19:24:01.429Z,38.38
2019-01-24T19:26:33.354Z,37.65
2019-01-24T19:29:04.382Z,38.77
2019-01-24T19:31:35.311Z,37.08
2019-01-24T19:34:06.356Z,36.65
2019-01-24T19:36:37.224Z,36.63
2019-01-24T19:39:09.780Z,37.30
2019-01-24T19:41:41.235Z,35.90
2019-01-24T19:44:15.838Z,37.20
2019-01-24T19:46:46.222Z,38.93
2019-01-24T19:49:17.326Z,39.00
2019-01-24T19:51:48.376Z,38.23
2019-01-24T19:54:19.298Z,37.13
2019-01-24T19:56:50.219Z,38.02
2019-01-24T19:59:21.049Z,36.33
2019-01-24T20:01:53.761Z,35.73
2019-01-24T20:04:24.687Z,36.25
2019-01-24T20:06:55.690Z,36.75
2019-01-24T20:09:26.667Z,38.40
2019-01-24T20:11:57.796Z,35.97
2019-01-24T20:14:28.777Z,35.33
2019-01-24T20:16:59.753Z,37.10
2019-01-24T20:19:30.765Z,38.83
2019-01-24T20:22:01.826Z,35.07
2019-01-24T20:24:32.929Z,34.00
2019-01-24T20:27:04.077Z,36.40
2019-01-24T20:29:35.158Z,35.85
2019-01-24T20:32:06.218Z,35.23
2019-01-24T20:34:37.256Z,37.75
2019-01-24T20:37:09.795Z,37.30
2019-01-24T20:39:40.710Z,35.90
2019-01-24T20:42:12.885Z,35.07
2019-01-24T20:44:43.896Z,36.50
2019-01-24T20:47:14.974Z,36.38
2019-01-24T20:49:46.085Z,36.60
2019-01-24T20:52:17.084Z,38.13
2019-01-24T20:54:47.965Z,36.28
2019-01-24T20:57:18.823Z,37.83
2019-01-24T20:59:49.757Z,36.83
2019-01-24T21:02:20.730Z,36.57
2019-01-24T21:04:51.669Z,36.58
2019-01-24T21:07:22.723Z,37.67
2019-01-24T21:09:54.692Z,37.55
2019-01-24T21:12:25.624Z,38.03
2019-01-24T21:14:56.547Z,39.40
2019-01-24T21:17:27.702Z,36.95
2019-01-24T21:19:58.786Z,38.95
2019-01-24T21:22:30.932Z,39.87
2019-01-24T21:25:02.112Z,38.70
2019-01-24T21:27:33.114Z,39.50
2019-01-24T21:30:05.012Z,38.63
2019-01-24T21:32:36.157Z,38.53
2019-01-24T21:35:08.647Z,37.08
2019-01-24T21:37:39.647Z,35.78
2019-01-24T21:40:13.757Z,37.20
2019-01-24T21:42:45.004Z,37.75
2019-01-24T21:45:21.740Z,36.90
2019-01-24T21:47:52.558Z,37.90
2019-01-24T21:50:24.618Z,38.67
2019-01-24T21:52:57.073Z,37.95
2019-01-24T21:55:27.951Z,38.90
2019-01-24T21:57:59.034Z,39.00
2019-01-24T22:00:30.560Z,38.40
2019-01-24T22:03:01.458Z,36.42
2019-01-24T22:05:33.843Z,37.15
2019-01-24T22:08:05.077Z,36.53
2019-01-24T22:10:35.974Z,38.28
2019-01-24T22:13:07.041Z,37.42
2019-01-24T22:15:37.970Z,37.88
2019-01-24T22:18:08.928Z,36.88
2019-01-24T22:20:39.738Z,38.60
2019-01-24T22:23:10.675Z,39.03
2019-01-24T22:25:41.742Z,38.70
2019-01-24T22:28:12.735Z,39.40
2019-01-24T22:30:51.093Z,39.23
2019-01-24T22:33:22.018Z,38.35
2019-01-24T22:35:52.967Z,38.73
2019-01-24T22:38:23.839Z,37.55
2019-01-24T22:40:54.653Z,38.05
2019-01-24T22:43:25.918Z,38.05
2019-01-24T22:45:56.754Z,38.67
2019-01-24T22:48:27.607Z,37.98
2019-01-24T22:50:58.412Z,39.70
2019-01-24T22:53:29.209Z,38.08
2019-01-24T22:55:59.990Z,37.28
2019-01-24T22:58:30.842Z,37.85
2019-01-24T23:01:27.737Z,36.83
2019-01-24T23:04:06.650Z,37.53
2019-01-24T23:06:38.942Z,38.83
2019-01-24T23:09:11.362Z,39.50
2019-01-24T23:11:42.475Z,37.77
2019-01-24T23:14:13.454Z,39.05
2019-01-24T23:16:44.403Z,37.53
2019-01-24T23:19:15.426Z,36.05
2019-01-24T23:21:46.464Z,37.80
2019-01-24T23:24:17.252Z,35.75
2019-01-24T23:26:48.078Z,36.77
2019-01-24T23:29:19.031Z,39.05
2019-01-24T23:31:49.867Z,38.60
2019-01-24T23:34:20.738Z,39.73
2019-01-24T23:36:51.530Z,38.37
2019-01-24T23:39:22.467Z,37.13
2019-01-24T23:41:53.280Z,37.28
2019-01-24T23:44:24.302Z,37.07
2019-01-24T23:46:55.227Z,37.53
2019-01-24T23:49:26.065Z,40.90
2019-01-24T23:51:56.914Z,38.50
2019-01-24T23:54:27.763Z,39.18
2019-01-24T23:56:58.583Z,40.17
2019-01-24T23:59:30.264Z,38.63
